Etusivu
METAR-TAF:

METAR-TAF

Lentoasemat :

Litchfield Municipal Airport

Litchfield, Illinois, Yhdysvallat

Leveyspiiri: 39-09-44N, Pituuspiiri: 089-40-28W, korkeus merenpinnasta: 210 m

Tämänhetkinen sää

Tämä raportti tehtiin 22 minuuttia sitten, kello 11.55 UTC
Tuuli 3 kn pohjoisesta
Lämpötila 1°C
Kosteus 93%
Ilmanpaine 1019 hPa
Näkyvyys: 11.3 km
selkeää

METAR: K3LF 011155Z AUTO 36003KT 7SM CLR 01/00 A3008 RMK AO2 T00050000 10030 20002

Aika: 07:17 (12:17 UTC)


TAF: puuttuu

Säähavainnot ja -ennusteet yli 4000 lentoasemalta (METAR- ja TAF-raportit).

Käytössä olevat sääasemat on merkitty karttaan keltaisilla ja punaisilla pisteillä.

Aseta hiiri pisteen päälle nähdäksesi sääaseman nimen.

Klikkaa sitten nähdäksesi säähavainnot ja -ennusteet.

Kartan vaihtaminen: klikkaa mustalla rastilla varustettuja vihreitä pisteitä, niin voit zoomata sisään; viivalla varustettua vihreää pistettä, niin voit zoomata ulos tai vihreitä nuolia, niin pääset viereisille kartoille.


METAR-TAF: